Time;durP1;ratioP1;P1;durP2;ratioP2;P2;SDS_P1;SDS_P2;PMS_P1;PMS_P2;Temp;Humidity;BMP_temperature;BMP_pressure;BME280_temperature;BME280_humidity;BME280_pressure;Samples;Min_cycle;Max_cycle;Signal;HPM_P1;HPM_P2
2023/09/11 00:00:41;;;;;;;5.97;3.63;;;15.90;99.90;;;;;;5035279;28;20197;-89
2023/09/11 00:03:09;;;;;;;13.23;3.67;;;15.90;99.90;;;;;;5036731;28;20569;-87
2023/09/11 00:05:37;;;;;;;6.55;3.40;;;15.90;99.90;;;;;;5037469;28;20675;-88
2023/09/11 00:08:10;;;;;;;7.47;3.35;;;15.90;99.90;;;;;;5021351;28;20216;-87
2023/09/11 00:10:38;;;;;;;4.82;2.97;;;15.90;99.90;;;;;;5031009;28;20209;-88
2023/09/11 00:13:06;;;;;;;8.63;4.10;;;15.80;99.90;;;;;;5020051;28;22277;-88
2023/09/11 00:15:34;;;;;;;6.63;3.88;;;15.80;99.90;;;;;;5040195;28;20204;-87
2023/09/11 00:18:02;;;;;;;8.40;3.75;;;15.80;99.90;;;;;;5022408;28;20991;-88
2023/09/11 00:20:30;;;;;;;9.07;4.07;;;15.80;99.90;;;;;;5034220;28;20198;-88
2023/09/11 00:22:57;;;;;;;8.80;3.50;;;15.80;99.90;;;;;;5043860;28;20288;-87
2023/09/11 00:25:28;;;;;;;8.45;3.85;;;15.70;99.90;;;;;;5035428;28;20196;-88
2023/09/11 00:27:56;;;;;;;10.50;4.45;;;15.70;99.90;;;;;;5032066;28;20573;-88
2023/09/11 00:30:24;;;;;;;8.90;3.70;;;15.70;99.90;;;;;;5024128;28;20185;-88
2023/09/11 00:32:52;;;;;;;6.80;3.65;;;15.70;99.90;;;;;;5030846;28;20197;-88
2023/09/11 00:35:20;;;;;;;7.55;3.33;;;15.70;99.90;;;;;;5044088;28;20205;-88
2023/09/11 00:37:47;;;;;;;6.93;3.80;;;15.70;99.90;;;;;;5031329;28;20201;-87
2023/09/11 00:40:15;;;;;;;8.85;4.30;;;15.70;99.90;;;;;;5031675;28;20194;-87
2023/09/11 00:42:43;;;;;;;10.95;3.58;;;15.70;99.90;;;;;;5027732;28;20190;-88
2023/09/11 00:45:12;;;;;;;11.02;4.22;;;15.70;99.90;;;;;;5040739;28;20658;-87
2023/09/11 00:47:42;;;;;;;6.20;3.72;;;15.60;99.90;;;;;;5033861;28;20238;-88
2023/09/11 00:50:11;;;;;;;7.10;3.08;;;15.60;99.90;;;;;;5039251;28;20217;-88
2023/09/11 00:52:40;;;;;;;8.27;3.20;;;15.60;99.90;;;;;;5033385;28;20192;-88
2023/09/11 00:55:09;;;;;;;9.13;3.20;;;15.60;99.90;;;;;;5034897;28;20186;-87
2023/09/11 00:57:37;;;;;;;5.45;3.80;;;15.60;99.90;;;;;;5034715;28;20224;-87
2023/09/11 01:00:06;;;;;;;9.80;3.63;;;15.50;99.90;;;;;;5035918;28;20607;-88
2023/09/11 01:02:34;;;;;;;9.68;3.53;;;15.50;99.90;;;;;;5028197;28;20221;-87
2023/09/11 01:05:07;;;;;;;7.63;3.13;;;15.50;99.90;;;;;;5035121;28;20208;-88
2023/09/11 01:07:35;;;;;;;8.95;2.95;;;15.50;99.90;;;;;;5023864;28;20207;-87
2023/09/11 01:10:05;;;;;;;5.97;3.20;;;15.50;99.90;;;;;;5011344;28;20197;-88
2023/09/11 01:12:36;;;;;;;7.78;3.50;;;15.40;99.90;;;;;;5036473;28;20178;-87
2023/09/11 01:15:05;;;;;;;5.50;2.80;;;15.40;99.90;;;;;;5021964;28;20567;-88
2023/09/11 01:17:58;;;;;;;7.18;2.78;;;15.40;99.90;;;;;;5033953;28;20225;-87
2023/09/11 01:20:29;;;;;;;10.13;3.30;;;15.40;99.90;;;;;;5021995;28;20186;-88
2023/09/11 01:23:15;;;;;;;5.55;3.40;;;15.40;99.90;;;;;;5029927;28;20202;-87
2023/09/11 01:26:10;;;;;;;8.45;3.28;;;15.40;99.90;;;;;;5020918;28;20205;-86
2023/09/11 01:29:03;;;;;;;9.55;3.03;;;15.40;99.90;;;;;;5031736;28;20220;-88
2023/09/11 01:31:36;;;;;;;6.55;2.90;;;15.30;99.90;;;;;;5026614;28;20189;-87
2023/09/11 01:34:06;;;;;;;5.15;2.80;;;15.30;99.90;;;;;;5019759;28;20197;-89
2023/09/11 01:36:34;;;;;;;7.68;3.00;;;15.30;99.90;;;;;;5034485;28;20223;-87
2023/09/11 01:39:05;;;;;;;6.53;2.92;;;15.30;99.90;;;;;;5034604;28;20194;-88
2023/09/11 01:41:41;;;;;;;7.25;3.17;;;15.30;99.90;;;;;;5032029;28;20194;-88
2023/09/11 01:44:18;;;;;;;5.30;2.88;;;15.30;99.90;;;;;;5031493;28;20201;-88
2023/09/11 01:46:47;;;;;;;6.72;2.72;;;15.30;99.90;;;;;;5030784;28;20236;-87
2023/09/11 01:49:16;;;;;;;7.95;3.10;;;15.20;99.90;;;;;;5036237;28;20209;-87
2023/09/11 01:51:45;;;;;;;7.18;2.70;;;15.20;99.90;;;;;;5036670;28;20224;-87
2023/09/11 01:54:14;;;;;;;9.10;3.08;;;15.20;99.90;;;;;;5031519;28;20197;-87
2023/09/11 01:56:42;;;;;;;8.02;2.97;;;15.20;99.90;;;;;;5036890;28;20198;-87
2023/09/11 01:59:09;;;;;;;6.50;3.10;;;15.20;99.90;;;;;;5032750;28;20190;-87
2023/09/11 02:01:37;;;;;;;4.72;2.92;;;15.30;99.90;;;;;;5040141;28;20292;-88
2023/09/11 02:04:06;;;;;;;5.72;2.78;;;15.20;99.90;;;;;;5040176;28;20196;-87
2023/09/11 02:06:33;;;;;;;6.55;3.25;;;15.20;99.90;;;;;;5038302;28;20193;-87
2023/09/11 02:09:02;;;;;;;4.20;2.85;;;15.20;99.90;;;;;;5023797;28;20209;-87
2023/09/11 02:11:30;;;;;;;4.93;3.05;;;15.20;99.90;;;;;;5036683;28;20213;-87
2023/09/11 02:13:57;;;;;;;7.88;3.35;;;15.10;99.90;;;;;;5020046;28;20194;-87
2023/09/11 02:16:28;;;;;;;11.20;3.40;;;15.00;99.90;;;;;;5042420;28;20182;-87
2023/09/11 02:18:56;;;;;;;9.43;2.90;;;15.00;99.90;;;;;;5040368;28;20200;-89
2023/09/11 02:21:24;;;;;;;9.13;3.75;;;15.00;99.90;;;;;;5039369;28;20194;-87
2023/09/11 02:23:51;;;;;;;7.20;3.35;;;15.00;99.90;;;;;;5037053;28;20690;-87
2023/09/11 02:26:20;;;;;;;6.13;3.15;;;15.00;99.90;;;;;;5020474;28;20773;-87
2023/09/11 02:28:48;;;;;;;7.40;3.13;;;15.00;99.90;;;;;;5036123;28;20213;-88
2023/09/11 02:31:15;;;;;;;6.90;3.30;;;15.00;99.90;;;;;;5038860;28;20204;-88
2023/09/11 02:33:43;;;;;;;6.43;3.55;;;15.00;99.90;;;;;;5030267;28;20185;-88
2023/09/11 02:36:11;;;;;;;9.50;3.70;;;14.90;99.90;;;;;;5036241;28;20190;-86
2023/09/11 02:38:38;;;;;;;7.57;3.40;;;15.00;99.90;;;;;;5037613;28;20276;-89
2023/09/11 02:41:07;;;;;;;11.57;3.25;;;14.90;99.90;;;;;;5038146;28;20182;-88
2023/09/11 02:43:37;;;;;;;10.45;3.47;;;14.90;99.90;;;;;;5045620;28;20194;-88
2023/09/11 02:46:05;;;;;;;6.55;3.72;;;14.90;99.90;;;;;;5016961;28;20233;-88
2023/09/11 02:48:33;;;;;;;8.02;4.13;;;14.90;99.90;;;;;;5039622;28;20250;-87
2023/09/11 02:51:01;;;;;;;6.00;3.40;;;14.90;99.90;;;;;;5033023;28;20205;-86
2023/09/11 02:53:28;;;;;;;11.93;3.85;;;14.90;99.90;;;;;;5021795;28;20200;-88
2023/09/11 02:55:56;;;;;;;7.25;3.78;;;14.90;99.90;;;;;;5034272;28;20194;-88
2023/09/11 02:58:24;;;;;;;6.30;4.07;;;14.80;99.90;;;;;;5022784;28;20201;-88
2023/09/11 03:00:52;;;;;;;7.45;3.28;;;14.90;99.90;;;;;;5019513;28;20197;-88
2023/09/11 03:03:20;;;;;;;5.75;3.85;;;14.80;99.90;;;;;;5036156;28;20556;-88
2023/09/11 03:06:00;;;;;;;5.13;3.22;;;14.80;99.90;;;;;;5028786;28;20218;-88
2023/09/11 03:08:28;;;;;;;7.22;3.65;;;14.80;99.90;;;;;;5028571;28;20250;-87
2023/09/11 03:11:07;;;;;;;5.13;3.30;;;14.80;99.90;;;;;;5033596;28;20252;-87
2023/09/11 03:13:37;;;;;;;4.43;3.13;;;14.80;99.90;;;;;;5037457;28;20687;-87
2023/09/11 03:16:13;;;;;;;10.27;3.92;;;14.80;99.90;;;;;;5049354;28;20204;-87
2023/09/11 03:18:45;;;;;;;8.70;3.35;;;14.80;99.90;;;;;;5041347;28;20266;-87
2023/09/11 03:21:13;;;;;;;5.95;3.05;;;14.80;99.90;;;;;;5019186;28;20637;-88
2023/09/11 03:23:41;;;;;;;9.45;3.42;;;14.80;99.90;;;;;;5015647;28;20721;-88
2023/09/11 03:26:14;;;;;;;6.10;3.33;;;14.70;99.90;;;;;;5022020;28;20247;-87
2023/09/11 03:28:49;;;;;;;7.55;3.30;;;14.70;99.90;;;;;;5040594;28;20220;-88
2023/09/11 03:31:22;;;;;;;7.63;3.20;;;14.70;99.90;;;;;;5026890;28;20263;-88
2023/09/11 03:33:50;;;;;;;7.80;3.65;;;14.70;99.90;;;;;;5027499;28;20289;-87
2023/09/11 03:36:18;;;;;;;10.98;3.10;;;14.70;99.90;;;;;;5013095;28;20213;-88
2023/09/11 03:38:46;;;;;;;5.13;3.38;;;14.70;99.90;;;;;;5041423;28;20238;-88
2023/09/11 03:41:14;;;;;;;7.82;3.45;;;14.70;99.90;;;;;;5038381;28;20212;-88
2023/09/11 03:43:43;;;;;;;4.25;3.03;;;14.70;99.90;;;;;;5041639;28;20194;-89
2023/09/11 03:46:14;;;;;;;4.72;2.50;;;14.60;99.90;;;;;;5020646;28;20301;-88
2023/09/11 03:48:44;;;;;;;7.10;3.05;;;14.60;99.90;;;;;;5032344;28;20201;-87
2023/09/11 03:51:14;;;;;;;8.45;3.22;;;14.70;99.90;;;;;;5031618;28;20198;-87
2023/09/11 03:53:43;;;;;;;7.07;2.78;;;14.70;99.90;;;;;;5043188;28;20217;-88
2023/09/11 03:56:16;;;;;;;6.20;2.55;;;14.70;99.90;;;;;;5034237;28;20564;-87
2023/09/11 03:58:45;;;;;;;9.05;2.75;;;14.70;99.90;;;;;;5037366;28;20199;-88
2023/09/11 04:01:16;;;;;;;7.65;3.00;;;14.70;99.90;;;;;;5027433;28;20659;-87
2023/09/11 04:03:44;;;;;;;4.88;2.90;;;14.60;99.90;;;;;;5022294;28;20192;-87
2023/09/11 04:06:12;;;;;;;7.75;3.47;;;14.60;99.90;;;;;;5017616;28;20186;-87
2023/09/11 04:08:40;;;;;;;6.82;2.88;;;14.60;99.90;;;;;;5037130;28;20188;-89
2023/09/11 04:11:08;;;;;;;7.45;3.10;;;14.60;99.90;;;;;;5033906;28;20846;-89
2023/09/11 04:13:36;;;;;;;7.05;2.88;;;14.60;99.90;;;;;;5036918;28;20553;-88
2023/09/11 04:16:05;;;;;;;6.75;3.05;;;14.60;99.90;;;;;;5035399;28;20197;-88
2023/09/11 04:18:32;;;;;;;6.05;2.67;;;14.60;99.90;;;;;;5035432;28;20189;-88
2023/09/11 04:21:04;;;;;;;5.78;2.80;;;14.60;99.90;;;;;;5019282;28;20200;-87
2023/09/11 04:23:34;;;;;;;6.13;3.53;;;14.50;99.90;;;;;;5020432;28;20254;-86
2023/09/11 04:26:03;;;;;;;6.13;3.15;;;14.50;99.90;;;;;;5023955;28;20202;-87
2023/09/11 04:28:31;;;;;;;6.70;3.00;;;14.50;99.90;;;;;;5036909;28;20197;-87
2023/09/11 04:30:58;;;;;;;4.32;3.08;;;14.50;99.90;;;;;;5032338;28;20239;-88
2023/09/11 04:33:27;;;;;;;6.30;2.90;;;14.50;99.90;;;;;;5015835;28;20702;-87
2023/09/11 04:35:55;;;;;;;6.63;2.92;;;14.40;99.90;;;;;;5024115;28;20301;-89
2023/09/11 04:38:24;;;;;;;8.18;2.83;;;14.40;99.90;;;;;;5028980;28;20714;-88
2023/09/11 04:40:56;;;;;;;4.63;3.00;;;14.50;99.90;;;;;;5009858;28;20201;-89
2023/09/11 04:43:26;;;;;;;5.47;2.95;;;14.50;99.90;;;;;;5037560;28;20198;-88
2023/09/11 04:45:54;;;;;;;7.30;2.70;;;14.50;99.90;;;;;;5038197;28;20233;-88
2023/09/11 04:48:22;;;;;;;5.93;2.85;;;14.50;99.90;;;;;;5026754;28;20220;-88
2023/09/11 04:50:49;;;;;;;8.50;2.95;;;14.60;99.90;;;;;;5030995;28;20240;-88
2023/09/11 04:53:17;;;;;;;6.28;2.92;;;14.60;99.90;;;;;;5032578;28;20194;-89
2023/09/11 04:55:46;;;;;;;7.45;2.78;;;14.60;99.90;;;;;;5033497;28;20194;-87
2023/09/11 04:58:14;;;;;;;9.07;3.17;;;14.60;99.90;;;;;;5037843;28;20272;-87
2023/09/11 05:00:42;;;;;;;9.95;3.50;;;14.60;99.90;;;;;;5027879;28;20285;-88
2023/09/11 05:03:10;;;;;;;8.00;2.88;;;14.50;99.90;;;;;;5030157;28;20733;-87
2023/09/11 05:05:40;;;;;;;5.03;2.90;;;14.60;99.90;;;;;;5031457;28;20185;-88
2023/09/11 05:08:10;;;;;;;7.47;3.17;;;14.60;99.90;;;;;;5013885;28;20190;-88
2023/09/11 05:10:43;;;;;;;4.95;3.08;;;14.70;99.90;;;;;;5014987;28;20336;-87
2023/09/11 05:13:13;;;;;;;8.07;2.72;;;14.70;99.90;;;;;;5025078;28;20282;-88
2023/09/11 05:15:42;;;;;;;4.65;2.78;;;14.60;99.90;;;;;;5044688;28;20212;-88
2023/09/11 05:18:11;;;;;;;4.57;2.80;;;14.60;99.90;;;;;;5013820;28;20198;-89
2023/09/11 05:20:39;;;;;;;9.07;3.17;;;14.70;99.90;;;;;;5025998;28;20205;-88
2023/09/11 05:23:07;;;;;;;7.32;2.95;;;14.70;99.90;;;;;;5028431;28;20193;-87
2023/09/11 05:25:36;;;;;;;6.53;3.20;;;14.70;99.90;;;;;;5035771;28;20266;-89
2023/09/11 05:28:05;;;;;;;5.90;2.72;;;14.80;99.90;;;;;;5018118;28;20199;-88
2023/09/11 05:30:33;;;;;;;4.93;3.22;;;14.80;99.90;;;;;;5005653;28;20229;-87
2023/09/11 05:33:00;;;;;;;6.10;2.78;;;14.80;99.90;;;;;;5035518;28;20238;-87
2023/09/11 05:35:28;;;;;;;8.20;3.28;;;14.80;99.90;;;;;;5041534;28;20197;-89
2023/09/11 05:37:56;;;;;;;5.55;2.88;;;14.90;99.90;;;;;;5009476;28;20178;-88
2023/09/11 05:40:24;;;;;;;4.53;2.28;;;14.90;99.90;;;;;;5013200;28;20205;-86
2023/09/11 05:42:51;;;;;;;6.28;2.90;;;14.90;99.90;;;;;;5041964;28;20217;-89
2023/09/11 05:45:19;;;;;;;7.72;2.90;;;14.90;99.90;;;;;;5048126;28;20678;-88
2023/09/11 05:47:47;;;;;;;4.15;2.55;;;14.90;99.90;;;;;;5039578;28;20296;-89
2023/09/11 05:50:17;;;;;;;8.38;3.13;;;14.90;99.90;;;;;;5039189;28;20213;-88
2023/09/11 05:52:44;;;;;;;4.38;2.70;;;14.90;99.90;;;;;;5025052;28;20190;-88
2023/09/11 05:55:12;;;;;;;6.20;2.60;;;14.90;99.90;;;;;;5038160;28;20197;-88
2023/09/11 05:57:40;;;;;;;7.05;3.50;;;14.90;99.90;;;;;;5005361;28;20187;-88
2023/09/11 06:00:12;;;;;;;10.02;3.40;;;14.90;99.90;;;;;;5039466;28;20193;-88
2023/09/11 06:02:40;;;;;;;6.47;3.15;;;14.90;99.90;;;;;;5048896;28;20222;-89
2023/09/11 06:05:08;;;;;;;6.20;2.97;;;14.90;99.90;;;;;;5030725;28;20204;-88
2023/09/11 06:07:36;;;;;;;8.05;3.25;;;14.90;99.90;;;;;;5048481;28;20619;-89
2023/09/11 06:10:05;;;;;;;5.72;3.33;;;14.90;99.90;;;;;;5018195;28;20270;-89
2023/09/11 06:12:33;;;;;;;8.35;2.88;;;14.90;99.90;;;;;;5043241;28;20193;-88
2023/09/11 06:15:04;;;;;;;6.85;3.15;;;14.90;99.90;;;;;;5041862;28;20198;-89
2023/09/11 06:17:32;;;;;;;5.75;2.97;;;14.90;99.90;;;;;;5010173;28;20659;-89
2023/09/11 06:20:15;;;;;;;9.60;3.33;;;14.90;99.90;;;;;;5022469;28;20269;-88
2023/09/11 06:22:44;;;;;;;6.30;4.05;;;15.00;99.90;;;;;;5037077;28;20208;-89
2023/09/11 06:25:12;;;;;;;9.38;3.60;;;15.00;99.90;;;;;;5017709;28;20190;-88
2023/09/11 06:27:39;;;;;;;12.52;5.18;;;15.00;99.90;;;;;;5040177;28;20675;-89
2023/09/11 06:30:08;;;;;;;11.55;4.80;;;15.00;99.90;;;;;;5037541;28;20213;-88
2023/09/11 06:32:36;;;;;;;8.57;4.30;;;15.00;99.90;;;;;;5027830;28;20228;-88
2023/09/11 06:35:04;;;;;;;7.95;4.20;;;15.00;99.90;;;;;;5016753;28;20235;-87
2023/09/11 06:37:33;;;;;;;10.52;4.32;;;15.10;99.90;;;;;;5034838;28;20185;-87
2023/09/11 06:40:01;;;;;;;10.00;4.50;;;15.10;99.90;;;;;;5023602;28;20242;-88
2023/09/11 06:42:29;;;;;;;10.65;4.50;;;15.20;99.90;;;;;;5043064;28;20728;-88
2023/09/11 06:44:56;;;;;;;8.25;4.47;;;15.20;99.90;;;;;;5032458;28;20197;-87
2023/09/11 06:47:24;;;;;;;8.85;5.03;;;15.30;99.90;;;;;;5042490;28;20308;-88
2023/09/11 06:49:52;;;;;;;9.30;4.43;;;15.30;99.90;;;;;;5031530;28;20221;-87
2023/09/11 06:52:20;;;;;;;6.82;4.35;;;15.40;99.90;;;;;;5015090;28;20194;-89
2023/09/11 06:54:48;;;;;;;7.07;4.90;;;15.40;99.90;;;;;;5020950;28;20185;-89
2023/09/11 06:57:15;;;;;;;8.90;4.05;;;15.50;99.90;;;;;;5030848;28;20190;-89
2023/09/11 06:59:43;;;;;;;7.85;4.57;;;15.50;99.90;;;;;;5019042;28;20886;-88
2023/09/11 07:02:11;;;;;;;7.55;4.43;;;15.60;99.90;;;;;;5029973;28;20271;-87
2023/09/11 07:04:39;;;;;;;10.13;4.82;;;15.70;99.90;;;;;;5032139;28;20202;-86
2023/09/11 07:07:07;;;;;;;10.55;4.47;;;15.70;99.90;;;;;;5028161;28;20277;-88
2023/09/11 07:09:34;;;;;;;9.02;4.72;;;15.70;99.90;;;;;;5011465;28;20190;-86
2023/09/11 07:12:02;;;;;;;9.25;4.32;;;15.70;99.90;;;;;;5031781;28;20221;-87
2023/09/11 07:14:30;;;;;;;9.65;4.55;;;15.80;99.90;;;;;;5041150;28;20189;-88
2023/09/11 07:17:00;;;;;;;7.80;4.57;;;16.00;99.90;;;;;;5044200;28;20272;-88
2023/09/11 07:19:28;;;;;;;10.57;4.47;;;16.00;99.90;;;;;;5017668;28;20727;-89
2023/09/11 07:21:56;;;;;;;9.35;4.50;;;16.00;99.90;;;;;;5033846;28;20189;-88
2023/09/11 07:24:24;;;;;;;6.45;3.75;;;16.00;99.90;;;;;;5029931;28;20242;-88
2023/09/11 07:26:51;;;;;;;13.10;4.40;;;16.10;99.90;;;;;;5044545;28;20193;-89
2023/09/11 07:29:20;;;;;;;10.02;4.85;;;16.20;99.90;;;;;;5019082;28;20667;-88
2023/09/11 07:31:48;;;;;;;8.55;4.70;;;16.30;99.90;;;;;;5029647;28;20213;-88
2023/09/11 07:34:16;;;;;;;10.98;4.57;;;16.40;99.90;;;;;;5029696;28;20189;-88
2023/09/11 07:36:43;;;;;;;9.13;4.53;;;16.50;99.90;;;;;;5028483;28;20260;-88
2023/09/11 07:39:11;;;;;;;8.27;5.18;;;16.50;99.90;;;;;;5041928;28;20929;-88
2023/09/11 07:41:39;;;;;;;7.72;4.97;;;16.60;99.90;;;;;;5046381;28;20196;-89
2023/09/11 07:44:06;;;;;;;11.57;5.57;;;16.70;99.90;;;;;;5031719;28;20181;-88
2023/09/11 07:46:34;;;;;;;12.32;5.03;;;16.80;99.90;;;;;;5039784;28;20626;-88
2023/09/11 07:49:02;;;;;;;13.15;5.22;;;16.90;99.90;;;;;;5021874;28;20204;-87
2023/09/11 07:51:30;;;;;;;13.98;5.13;;;17.00;99.90;;;;;;5039006;28;20212;-88
2023/09/11 07:53:58;;;;;;;10.55;5.00;;;17.10;99.90;;;;;;5020936;28;20225;-88
2023/09/11 07:56:26;;;;;;;11.27;5.10;;;17.20;99.90;;;;;;5026793;28;20189;-87
2023/09/11 07:58:54;;;;;;;11.18;5.05;;;17.20;99.90;;;;;;5033817;28;20196;-88
2023/09/11 08:01:22;;;;;;;11.85;5.35;;;17.30;99.90;;;;;;5042096;28;20193;-88
2023/09/11 08:03:50;;;;;;;8.57;4.88;;;17.40;99.90;;;;;;5034795;28;20638;-88
2023/09/11 08:06:18;;;;;;;14.32;5.35;;;17.30;99.90;;;;;;5023021;28;20197;-87
2023/09/11 08:08:46;;;;;;;17.15;5.32;;;17.50;99.90;;;;;;5029826;28;20283;-88
2023/09/11 08:11:21;;;;;;;10.20;5.13;;;17.50;99.90;;;;;;5037958;28;20590;-87
2023/09/11 08:13:50;;;;;;;10.95;5.50;;;17.60;99.90;;;;;;5046445;28;20200;-88
2023/09/11 08:16:18;;;;;;;14.05;5.65;;;17.60;99.90;;;;;;5038895;28;20200;-88
2023/09/11 08:18:46;;;;;;;12.88;6.05;;;17.80;99.90;;;;;;5033890;28;20240;-87
2023/09/11 08:21:15;;;;;;;14.07;6.10;;;17.90;99.90;;;;;;5013936;28;20202;-88
2023/09/11 08:23:43;;;;;;;12.10;6.00;;;18.00;99.90;;;;;;5037188;28;20614;-88
2023/09/11 08:26:12;;;;;;;9.48;5.57;;;18.00;99.90;;;;;;5031577;28;20204;-87
2023/09/11 08:28:39;;;;;;;10.73;5.90;;;18.20;99.90;;;;;;5034618;28;20205;-88
2023/09/11 08:31:07;;;;;;;13.02;4.93;;;18.30;99.90;;;;;;5030127;28;20213;-87
2023/09/11 08:33:35;;;;;;;13.55;4.63;;;18.30;99.90;;;;;;5023810;28;20545;-88
2023/09/11 08:36:21;;;;;;;9.70;4.78;;;18.30;99.90;;;;;;5030141;28;20184;-89
2023/09/11 08:38:49;;;;;;;11.93;4.72;;;18.30;99.90;;;;;;5033302;28;20190;-87
2023/09/11 08:41:19;;;;;;;9.90;5.07;;;18.40;99.90;;;;;;5041938;28;20807;-88
2023/09/11 08:43:46;;;;;;;11.48;4.88;;;18.50;99.90;;;;;;5046885;28;20197;-88
2023/09/11 08:46:18;;;;;;;13.00;5.07;;;18.60;99.90;;;;;;5031237;28;20248;-88
2023/09/11 08:48:54;;;;;;;8.77;4.75;;;18.60;99.90;;;;;;5040043;28;20197;-86
2023/09/11 08:51:34;;;;;;;12.45;4.88;;;18.60;99.90;;;;;;5041074;28;20228;-88
2023/09/11 08:54:04;;;;;;;11.45;4.90;;;18.70;99.90;;;;;;5022884;28;20226;-87
2023/09/11 08:56:32;;;;;;;10.75;5.32;;;18.90;99.90;;;;;;5009587;28;20183;-88
2023/09/11 08:59:02;;;;;;;8.50;4.40;;;18.90;99.90;;;;;;5037297;28;20193;-88
2023/09/11 09:01:31;;;;;;;7.75;4.43;;;18.90;99.90;;;;;;5016460;28;20623;-88
2023/09/11 09:04:00;;;;;;;6.72;4.38;;;19.10;99.90;;;;;;5022051;28;20562;-87
2023/09/11 09:06:29;;;;;;;9.65;4.10;;;19.10;99.90;;;;;;5033120;28;20571;-88
2023/09/11 09:08:57;;;;;;;9.88;4.30;;;19.20;99.90;;;;;;5045732;28;20193;-88
2023/09/11 09:11:26;;;;;;;9.93;3.95;;;19.40;99.90;;;;;;5020917;28;20247;-88
2023/09/11 09:13:56;;;;;;;11.88;4.30;;;19.40;99.90;;;;;;5030302;28;20289;-89
2023/09/11 09:16:23;;;;;;;11.35;4.25;;;19.40;99.90;;;;;;5027773;28;20190;-86
2023/09/11 09:18:51;;;;;;;8.65;4.25;;;19.40;99.90;;;;;;5030138;28;20215;-88
2023/09/11 09:21:25;;;;;;;13.35;4.32;;;19.30;99.90;;;;;;5040839;28;20185;-88
2023/09/11 09:23:54;;;;;;;8.75;4.35;;;19.60;99.90;;;;;;5034445;28;20189;-87
2023/09/11 09:26:22;;;;;;;12.27;5.07;;;19.50;99.90;;;;;;5025865;28;20201;-88
2023/09/11 09:28:51;;;;;;;7.90;4.18;;;19.60;99.90;;;;;;5032383;28;20202;-87
2023/09/11 09:31:24;;;;;;;12.10;4.28;;;19.70;99.90;;;;;;5036878;28;20228;-88
2023/09/11 09:33:53;;;;;;;9.40;5.03;;;19.90;99.90;;;;;;5019159;28;20193;-88
2023/09/11 09:36:22;;;;;;;15.60;4.47;;;20.00;99.90;;;;;;5039649;28;20186;-87
2023/09/11 09:38:51;;;;;;;8.77;4.60;;;20.00;99.90;;;;;;5041164;28;21027;-89
2023/09/11 09:41:20;;;;;;;10.70;4.35;;;20.10;99.90;;;;;;5041455;28;20622;-88
2023/09/11 09:43:53;;;;;;;11.88;4.38;;;20.10;99.90;;;;;;5033092;28;20270;-87
2023/09/11 09:46:22;;;;;;;8.38;4.22;;;20.00;99.90;;;;;;5029833;28;20638;-88
2023/09/11 09:48:50;;;;;;;8.65;4.93;;;20.20;99.90;;;;;;5024786;28;20197;-88
2023/09/11 09:51:20;;;;;;;11.15;4.57;;;20.40;99.90;;;;;;5032600;28;20251;-88
2023/09/11 09:53:53;;;;;;;9.75;4.80;;;20.40;99.90;;;;;;5034041;27;20194;-88
2023/09/11 09:56:21;;;;;;;6.93;4.35;;;20.50;99.90;;;;;;5030779;28;20189;-87
2023/09/11 09:58:49;;;;;;;14.07;5.18;;;20.60;99.90;;;;;;5030305;28;20185;-88
2023/09/11 10:01:20;;;;;;;9.05;5.13;;;20.60;99.90;;;;;;5028709;28;20888;-88
2023/09/11 10:03:50;;;;;;;9.90;5.20;;;20.60;99.90;;;;;;5005125;28;20248;-88
2023/09/11 10:06:20;;;;;;;12.15;5.30;;;20.70;99.90;;;;;;5000433;28;20244;-89
2023/09/11 10:09:07;;;;;;;15.07;4.95;;;20.80;99.90;;;;;;5021284;28;20309;-87
2023/09/11 10:11:37;;;;;;;11.02;4.97;;;20.90;99.90;;;;;;5032755;28;20218;-87
2023/09/11 10:14:08;;;;;;;11.45;4.90;;;20.90;99.90;;;;;;5030139;28;20186;-87
2023/09/11 10:16:36;;;;;;;9.25;5.10;;;20.90;99.90;;;;;;5041681;28;20258;-87
2023/09/11 10:19:04;;;;;;;11.98;6.15;;;20.90;99.90;;;;;;5015489;28;20182;-88
2023/09/11 10:21:34;;;;;;;13.35;5.88;;;21.00;99.90;;;;;;5034465;28;20201;-87
2023/09/11 10:24:01;;;;;;;11.25;5.97;;;21.10;99.90;;;;;;5016239;28;20193;-88
2023/09/11 10:26:48;;;;;;;9.45;5.78;;;21.30;99.90;;;;;;5031136;28;20202;-87
2023/09/11 10:29:49;;;;;;;9.85;5.78;;;21.30;99.90;;;;;;5029484;28;20561;-88
2023/09/11 10:32:54;;;;;;;10.98;5.70;;;21.40;99.90;;;;;;5029196;28;20573;-87
2023/09/11 10:35:22;;;;;;;9.18;5.30;;;21.40;99.90;;;;;;5012814;28;20673;-88
2023/09/11 10:37:57;;;;;;;14.05;6.30;;;21.50;99.90;;;;;;5037539;28;20739;-88
2023/09/11 10:40:29;;;;;;;12.07;5.93;;;21.70;99.90;;;;;;5037296;28;20197;-87
2023/09/11 10:42:58;;;;;;;13.07;6.88;;;21.80;99.90;;;;;;5001027;28;20227;-88
2023/09/11 10:45:30;;;;;;;16.00;6.68;;;21.80;99.90;;;;;;5031686;28;20742;-88
2023/09/11 10:47:58;;;;;;;11.95;7.00;;;21.80;99.90;;;;;;5038824;28;20276;-88
2023/09/11 10:50:42;;;;;;;12.88;6.80;;;21.90;99.90;;;;;;5036349;28;20221;-88
2023/09/11 10:53:10;;;;;;;11.57;6.60;;;22.10;99.90;;;;;;5043489;28;20629;-88
2023/09/11 10:55:38;;;;;;;15.50;7.40;;;22.10;99.90;;;;;;5034960;28;20532;-87
2023/09/11 10:58:07;;;;;;;9.98;6.80;;;22.20;99.90;;;;;;5039556;28;20194;-88
2023/09/11 11:00:38;;;;;;;8.43;6.13;;;22.20;99.90;;;;;;5035080;28;20252;-87
2023/09/11 11:03:07;;;;;;;12.75;7.28;;;22.20;99.90;;;;;;5042276;28;20201;-88
2023/09/11 11:05:37;;;;;;;11.27;6.70;;;22.20;99.90;;;;;;5039757;28;20182;-89
2023/09/11 11:08:08;;;;;;;12.45;7.22;;;22.20;99.90;;;;;;5040241;28;20182;-88
2023/09/11 11:10:39;;;;;;;12.13;7.57;;;22.20;99.90;;;;;;5022502;28;20250;-88
2023/09/11 11:13:08;;;;;;;14.23;7.85;;;22.10;99.90;;;;;;5029789;28;20189;-87
2023/09/11 11:15:36;;;;;;;12.25;7.80;;;22.20;99.90;;;;;;5036577;28;21171;-88
2023/09/11 11:18:47;;;;;;;11.80;8.07;;;22.30;99.90;;;;;;5037185;28;20212;-87
2023/09/11 11:21:15;;;;;;;12.38;7.80;;;22.40;99.90;;;;;;5044321;28;20193;-87
2023/09/11 11:23:54;;;;;;;10.60;7.28;;;22.60;99.90;;;;;;5033501;28;20194;-86
2023/09/11 11:26:27;;;;;;;15.55;7.85;;;22.80;99.90;;;;;;5026076;28;20190;-87
2023/09/11 11:28:57;;;;;;;12.00;7.85;;;22.90;99.90;;;;;;5032418;28;20964;-88
2023/09/11 11:31:27;;;;;;;16.80;8.13;;;23.00;99.90;;;;;;5030892;28;20884;-88
2023/09/11 11:33:57;;;;;;;14.35;7.63;;;23.00;99.90;;;;;;5031637;28;20201;-86
2023/09/11 11:36:27;;;;;;;13.50;7.32;;;23.00;99.90;;;;;;5032209;28;20658;-88
2023/09/11 11:38:55;;;;;;;13.50;8.60;;;23.10;99.90;;;;;;5009452;28;20198;-87
2023/09/11 11:41:23;;;;;;;13.25;8.07;;;23.20;99.90;;;;;;5040781;28;20198;-87
2023/09/11 11:43:51;;;;;;;13.25;8.27;;;23.30;99.90;;;;;;5029242;28;20196;-87
2023/09/11 11:46:25;;;;;;;14.48;7.82;;;23.30;99.90;;;;;;5034712;28;20736;-87
2023/09/11 11:48:54;;;;;;;11.82;8.15;;;23.50;99.90;;;;;;5008740;28;20579;-88
2023/09/11 11:51:31;;;;;;;13.57;8.13;;;23.50;99.90;;;;;;5030488;28;20297;-86
2023/09/11 11:53:59;;;;;;;11.63;7.65;;;23.40;99.90;;;;;;5027192;28;20345;-87
2023/09/11 11:56:27;;;;;;;18.73;8.45;;;23.50;99.90;;;;;;5033137;28;20312;-88
2023/09/11 11:58:55;;;;;;;13.43;8.13;;;23.60;99.90;;;;;;5019896;28;20194;-88
2023/09/11 12:01:23;;;;;;;12.88;8.88;;;23.70;99.90;;;;;;5031278;28;20197;-86
2023/09/11 12:03:51;;;;;;;13.45;8.75;;;23.90;99.90;;;;;;5033027;28;20212;-87
2023/09/11 12:06:20;;;;;;;12.68;7.68;;;23.70;99.90;;;;;;5030582;28;20320;-87
2023/09/11 12:08:49;;;;;;;14.75;8.68;;;23.90;99.90;;;;;;5029912;28;20189;-87
2023/09/11 12:11:16;;;;;;;13.15;8.30;;;23.80;99.90;;;;;;5030714;28;20270;-88
2023/09/11 12:13:45;;;;;;;15.80;8.13;;;23.80;99.90;;;;;;5032303;28;20196;-88
2023/09/11 12:16:17;;;;;;;13.82;7.75;;;24.00;99.90;;;;;;5035622;28;20188;-86
2023/09/11 12:18:46;;;;;;;12.70;8.55;;;24.10;99.90;;;;;;5019169;28;20185;-88
2023/09/11 12:21:14;;;;;;;16.40;8.70;;;23.80;99.90;;;;;;5032211;28;20868;-87
2023/09/11 12:23:42;;;;;;;14.13;8.20;;;23.60;99.90;;;;;;5030856;28;20192;-87
2023/09/11 12:26:09;;;;;;;11.07;7.63;;;23.50;99.90;;;;;;5014396;28;20190;-88
2023/09/11 12:28:37;;;;;;;13.20;8.40;;;23.30;99.90;;;;;;5031817;28;20685;-88
2023/09/11 12:31:06;;;;;;;12.07;8.15;;;23.40;99.90;;;;;;5031319;28;20694;-87
2023/09/11 12:33:35;;;;;;;11.15;8.23;;;23.50;99.90;;;;;;5017397;28;20589;-87
2023/09/11 12:36:04;;;;;;;8.88;7.45;;;23.50;99.90;;;;;;5032477;28;20193;-88
2023/09/11 12:38:32;;;;;;;13.27;8.15;;;23.20;99.90;;;;;;5037573;28;20262;-87
2023/09/11 12:41:00;;;;;;;13.05;8.18;;;23.10;99.90;;;;;;5034284;28;20193;-87
2023/09/11 12:43:29;;;;;;;12.15;8.13;;;23.20;99.90;;;;;;5028820;28;20193;-88
2023/09/11 12:45:57;;;;;;;10.45;7.05;;;23.10;99.90;;;;;;5029369;28;20233;-89
2023/09/11 12:48:25;;;;;;;11.98;7.65;;;23.10;99.90;;;;;;5034757;28;20211;-88
2023/09/11 12:50:53;;;;;;;12.35;8.43;;;23.10;99.90;;;;;;5032057;28;20196;-87
2023/09/11 12:53:21;;;;;;;10.43;7.90;;;23.10;99.90;;;;;;5013059;28;20201;-88
2023/09/11 12:55:50;;;;;;;11.15;8.02;;;23.40;99.90;;;;;;5030314;28;20194;-88